sensor_id;sensor_type;location;lat;lon;timestamp;P1;durP1;ratioP1;P2;durP2;ratioP2
28988;SDS011;16089;59.952;10.818;2022-10-22T00:00:32;4.95;;;2.30;;
28988;SDS011;16089;59.952;10.818;2022-10-22T00:02:59;4.93;;;2.55;;
28988;SDS011;16089;59.952;10.818;2022-10-22T00:05:25;4.80;;;2.17;;
28988;SDS011;16089;59.952;10.818;2022-10-22T00:07:52;3.25;;;1.70;;
28988;SDS011;16089;59.952;10.818;2022-10-22T00:10:18;5.22;;;2.03;;
28988;SDS011;16089;59.952;10.818;2022-10-22T00:12:44;3.53;;;1.85;;
28988;SDS011;16089;59.952;10.818;2022-10-22T00:15:11;5.00;;;2.13;;
28988;SDS011;16089;59.952;10.818;2022-10-22T00:17:38;4.18;;;2.28;;
28988;SDS011;16089;59.952;10.818;2022-10-22T00:20:05;3.55;;;1.75;;
28988;SDS011;16089;59.952;10.818;2022-10-22T00:22:31;4.05;;;1.70;;
28988;SDS011;16089;59.952;10.818;2022-10-22T00:24:58;3.58;;;1.85;;
28988;SDS011;16089;59.952;10.818;2022-10-22T00:27:24;3.10;;;1.60;;
28988;SDS011;16089;59.952;10.818;2022-10-22T00:29:50;4.00;;;1.77;;
28988;SDS011;16089;59.952;10.818;2022-10-22T00:32:16;3.78;;;1.90;;
28988;SDS011;16089;59.952;10.818;2022-10-22T00:34:44;4.18;;;1.55;;
28988;SDS011;16089;59.952;10.818;2022-10-22T00:37:11;4.95;;;1.83;;
28988;SDS011;16089;59.952;10.818;2022-10-22T00:39:37;4.22;;;1.85;;
28988;SDS011;16089;59.952;10.818;2022-10-22T00:42:03;3.33;;;1.58;;
28988;SDS011;16089;59.952;10.818;2022-10-22T00:47:15;4.22;;;1.63;;
28988;SDS011;16089;59.952;10.818;2022-10-22T00:49:42;3.90;;;1.58;;
28988;SDS011;16089;59.952;10.818;2022-10-22T00:52:10;7.10;;;1.40;;
28988;SDS011;16089;59.952;10.818;2022-10-22T00:54:37;5.63;;;1.70;;
28988;SDS011;16089;59.952;10.818;2022-10-22T00:57:04;3.10;;;1.67;;
28988;SDS011;16089;59.952;10.818;2022-10-22T00:59:30;2.60;;;1.38;;
28988;SDS011;16089;59.952;10.818;2022-10-22T01:01:57;3.83;;;1.40;;
28988;SDS011;16089;59.952;10.818;2022-10-22T01:04:23;2.85;;;1.42;;
28988;SDS011;16089;59.952;10.818;2022-10-22T01:06:49;3.20;;;1.35;;
28988;SDS011;16089;59.952;10.818;2022-10-22T01:09:18;3.17;;;1.40;;
28988;SDS011;16089;59.952;10.818;2022-10-22T01:11:50;4.07;;;1.60;;
28988;SDS011;16089;59.952;10.818;2022-10-22T01:14:20;3.38;;;1.70;;
28988;SDS011;16089;59.952;10.818;2022-10-22T01:16:51;3.45;;;1.50;;
28988;SDS011;16089;59.952;10.818;2022-10-22T01:19:31;3.00;;;1.60;;
28988;SDS011;16089;59.952;10.818;2022-10-22T01:22:03;5.28;;;1.40;;
28988;SDS011;16089;59.952;10.818;2022-10-22T01:24:36;3.25;;;1.60;;
28988;SDS011;16089;59.952;10.818;2022-10-22T01:27:10;4.13;;;1.60;;
28988;SDS011;16089;59.952;10.818;2022-10-22T01:29:41;5.45;;;1.77;;
28988;SDS011;16089;59.952;10.818;2022-10-22T01:32:09;5.63;;;2.03;;
28988;SDS011;16089;59.952;10.818;2022-10-22T01:34:37;3.78;;;1.83;;
28988;SDS011;16089;59.952;10.818;2022-10-22T01:37:04;4.93;;;1.58;;
28988;SDS011;16089;59.952;10.818;2022-10-22T01:39:31;4.22;;;1.58;;
28988;SDS011;16089;59.952;10.818;2022-10-22T01:41:59;5.55;;;1.70;;
28988;SDS011;16089;59.952;10.818;2022-10-22T01:44:25;6.65;;;2.08;;
28988;SDS011;16089;59.952;10.818;2022-10-22T01:46:55;5.43;;;1.60;;
28988;SDS011;16089;59.952;10.818;2022-10-22T01:49:25;6.65;;;2.20;;
28988;SDS011;16089;59.952;10.818;2022-10-22T01:51:54;4.18;;;1.88;;
28988;SDS011;16089;59.952;10.818;2022-10-22T01:54:25;5.90;;;2.30;;
28988;SDS011;16089;59.952;10.818;2022-10-22T01:56:53;4.93;;;2.28;;
28988;SDS011;16089;59.952;10.818;2022-10-22T01:59:22;4.65;;;2.20;;
28988;SDS011;16089;59.952;10.818;2022-10-22T02:01:53;4.82;;;2.10;;
28988;SDS011;16089;59.952;10.818;2022-10-22T02:04:24;5.97;;;2.13;;
28988;SDS011;16089;59.952;10.818;2022-10-22T02:06:51;5.35;;;1.88;;
28988;SDS011;16089;59.952;10.818;2022-10-22T02:09:19;7.28;;;2.30;;
28988;SDS011;16089;59.952;10.818;2022-10-22T02:11:47;7.32;;;2.33;;
28988;SDS011;16089;59.952;10.818;2022-10-22T02:14:14;4.53;;;2.20;;
28988;SDS011;16089;59.952;10.818;2022-10-22T02:16:42;4.13;;;2.03;;
28988;SDS011;16089;59.952;10.818;2022-10-22T02:19:10;5.45;;;2.45;;
28988;SDS011;16089;59.952;10.818;2022-10-22T02:21:41;5.03;;;2.40;;
28988;SDS011;16089;59.952;10.818;2022-10-22T02:24:07;3.90;;;2.17;;
28988;SDS011;16089;59.952;10.818;2022-10-22T02:26:34;7.97;;;2.72;;
28988;SDS011;16089;59.952;10.818;2022-10-22T02:29:04;5.43;;;2.10;;
28988;SDS011;16089;59.952;10.818;2022-10-22T02:31:33;4.25;;;2.30;;
28988;SDS011;16089;59.952;10.818;2022-10-22T02:34:01;4.95;;;2.30;;
28988;SDS011;16089;59.952;10.818;2022-10-22T02:36:29;4.60;;;2.53;;
28988;SDS011;16089;59.952;10.818;2022-10-22T02:38:57;5.80;;;2.47;;
28988;SDS011;16089;59.952;10.818;2022-10-22T02:41:24;3.88;;;1.95;;
28988;SDS011;16089;59.952;10.818;2022-10-22T02:43:52;4.22;;;2.05;;
28988;SDS011;16089;59.952;10.818;2022-10-22T02:46:19;6.22;;;2.67;;
28988;SDS011;16089;59.952;10.818;2022-10-22T02:48:45;4.22;;;2.10;;
28988;SDS011;16089;59.952;10.818;2022-10-22T02:51:12;5.95;;;1.80;;
28988;SDS011;16089;59.952;10.818;2022-10-22T02:53:38;4.32;;;2.15;;
28988;SDS011;16089;59.952;10.818;2022-10-22T02:56:06;5.60;;;2.10;;
28988;SDS011;16089;59.952;10.818;2022-10-22T02:58:32;5.35;;;2.08;;
28988;SDS011;16089;59.952;10.818;2022-10-22T03:00:58;4.10;;;1.88;;
28988;SDS011;16089;59.952;10.818;2022-10-22T03:03:25;3.97;;;1.90;;
28988;SDS011;16089;59.952;10.818;2022-10-22T03:05:51;3.95;;;1.77;;
28988;SDS011;16089;59.952;10.818;2022-10-22T03:08:17;5.20;;;2.03;;
28988;SDS011;16089;59.952;10.818;2022-10-22T03:10:44;4.30;;;2.03;;
28988;SDS011;16089;59.952;10.818;2022-10-22T03:13:12;7.70;;;4.00;;
28988;SDS011;16089;59.952;10.818;2022-10-22T03:15:38;6.88;;;3.20;;
28988;SDS011;16089;59.952;10.818;2022-10-22T03:18:04;4.35;;;2.40;;
28988;SDS011;16089;59.952;10.818;2022-10-22T03:20:31;5.38;;;2.05;;
28988;SDS011;16089;59.952;10.818;2022-10-22T03:22:57;4.55;;;2.38;;
28988;SDS011;16089;59.952;10.818;2022-10-22T03:25:24;4.80;;;1.80;;
28988;SDS011;16089;59.952;10.818;2022-10-22T03:27:52;4.28;;;2.00;;
28988;SDS011;16089;59.952;10.818;2022-10-22T03:30:20;4.68;;;1.88;;
28988;SDS011;16089;59.952;10.818;2022-10-22T03:32:46;4.25;;;2.10;;
28988;SDS011;16089;59.952;10.818;2022-10-22T03:35:12;6.90;;;2.25;;
28988;SDS011;16089;59.952;10.818;2022-10-22T03:37:39;3.95;;;2.10;;
28988;SDS011;16089;59.952;10.818;2022-10-22T03:40:05;4.47;;;2.05;;
28988;SDS011;16089;59.952;10.818;2022-10-22T03:42:32;5.55;;;2.30;;
28988;SDS011;16089;59.952;10.818;2022-10-22T03:44:59;5.50;;;2.00;;
28988;SDS011;16089;59.952;10.818;2022-10-22T03:47:27;3.63;;;1.90;;
28988;SDS011;16089;59.952;10.818;2022-10-22T03:49:53;3.90;;;2.15;;
28988;SDS011;16089;59.952;10.818;2022-10-22T03:52:19;4.63;;;2.40;;
28988;SDS011;16089;59.952;10.818;2022-10-22T03:54:46;6.63;;;2.38;;
28988;SDS011;16089;59.952;10.818;2022-10-22T03:57:12;4.55;;;2.30;;
28988;SDS011;16089;59.952;10.818;2022-10-22T03:59:39;6.28;;;2.45;;
28988;SDS011;16089;59.952;10.818;2022-10-22T04:02:06;4.13;;;2.22;;
28988;SDS011;16089;59.952;10.818;2022-10-22T04:04:34;7.00;;;2.33;;
28988;SDS011;16089;59.952;10.818;2022-10-22T04:07:01;5.53;;;2.70;;
28988;SDS011;16089;59.952;10.818;2022-10-22T04:09:29;4.30;;;2.08;;
28988;SDS011;16089;59.952;10.818;2022-10-22T04:11:55;6.00;;;2.65;;
28988;SDS011;16089;59.952;10.818;2022-10-22T04:14:22;5.75;;;2.20;;
28988;SDS011;16089;59.952;10.818;2022-10-22T04:16:48;5.13;;;2.30;;
28988;SDS011;16089;59.952;10.818;2022-10-22T04:19:14;5.13;;;2.22;;
28988;SDS011;16089;59.952;10.818;2022-10-22T04:21:42;6.55;;;2.80;;
28988;SDS011;16089;59.952;10.818;2022-10-22T04:24:08;6.18;;;2.47;;
28988;SDS011;16089;59.952;10.818;2022-10-22T04:26:35;5.03;;;2.35;;
28988;SDS011;16089;59.952;10.818;2022-10-22T04:29:01;7.03;;;2.67;;
28988;SDS011;16089;59.952;10.818;2022-10-22T04:31:27;5.18;;;2.60;;
28988;SDS011;16089;59.952;10.818;2022-10-22T04:33:54;7.68;;;2.75;;
28988;SDS011;16089;59.952;10.818;2022-10-22T04:36:20;4.70;;;2.45;;
28988;SDS011;16089;59.952;10.818;2022-10-22T04:38:51;5.93;;;2.55;;
28988;SDS011;16089;59.952;10.818;2022-10-22T04:41:18;5.05;;;2.45;;
28988;SDS011;16089;59.952;10.818;2022-10-22T04:43:45;5.45;;;2.55;;
28988;SDS011;16089;59.952;10.818;2022-10-22T04:46:11;5.13;;;2.42;;
28988;SDS011;16089;59.952;10.818;2022-10-22T04:48:38;11.77;;;2.90;;
28988;SDS011;16089;59.952;10.818;2022-10-22T04:51:06;7.72;;;2.35;;
28988;SDS011;16089;59.952;10.818;2022-10-22T04:53:33;5.38;;;2.60;;
28988;SDS011;16089;59.952;10.818;2022-10-22T04:56:08;6.40;;;3.08;;
28988;SDS011;16089;59.952;10.818;2022-10-22T04:58:35;6.32;;;2.53;;
28988;SDS011;16089;59.952;10.818;2022-10-22T05:01:07;4.25;;;2.20;;
28988;SDS011;16089;59.952;10.818;2022-10-22T05:03:34;4.22;;;2.30;;
28988;SDS011;16089;59.952;10.818;2022-10-22T05:06:00;7.35;;;2.60;;
28988;SDS011;16089;59.952;10.818;2022-10-22T05:08:26;4.80;;;2.40;;
28988;SDS011;16089;59.952;10.818;2022-10-22T05:10:52;7.55;;;2.90;;
28988;SDS011;16089;59.952;10.818;2022-10-22T05:13:20;4.82;;;2.42;;
28988;SDS011;16089;59.952;10.818;2022-10-22T05:15:46;6.22;;;2.90;;
28988;SDS011;16089;59.952;10.818;2022-10-22T05:18:13;4.82;;;2.40;;
28988;SDS011;16089;59.952;10.818;2022-10-22T05:20:39;9.23;;;3.00;;
28988;SDS011;16089;59.952;10.818;2022-10-22T05:23:05;8.02;;;2.92;;
28988;SDS011;16089;59.952;10.818;2022-10-22T05:25:35;9.10;;;2.97;;
28988;SDS011;16089;59.952;10.818;2022-10-22T05:28:01;5.97;;;2.42;;
28988;SDS011;16089;59.952;10.818;2022-10-22T05:30:29;7.30;;;2.90;;
28988;SDS011;16089;59.952;10.818;2022-10-22T05:32:55;6.93;;;3.10;;
28988;SDS011;16089;59.952;10.818;2022-10-22T05:35:21;5.50;;;2.78;;
28988;SDS011;16089;59.952;10.818;2022-10-22T05:37:48;9.20;;;3.20;;
28988;SDS011;16089;59.952;10.818;2022-10-22T05:40:14;5.50;;;2.60;;
28988;SDS011;16089;59.952;10.818;2022-10-22T05:42:40;6.57;;;3.10;;
28988;SDS011;16089;59.952;10.818;2022-10-22T05:45:07;5.88;;;3.63;;
28988;SDS011;16089;59.952;10.818;2022-10-22T05:47:34;6.72;;;3.60;;
28988;SDS011;16089;59.952;10.818;2022-10-22T05:50:01;7.97;;;3.95;;
28988;SDS011;16089;59.952;10.818;2022-10-22T05:52:27;6.18;;;3.42;;
28988;SDS011;16089;59.952;10.818;2022-10-22T05:54:53;6.05;;;3.15;;
28988;SDS011;16089;59.952;10.818;2022-10-22T05:57:20;4.85;;;2.90;;
28988;SDS011;16089;59.952;10.818;2022-10-22T05:59:46;5.72;;;2.60;;
28988;SDS011;16089;59.952;10.818;2022-10-22T06:02:12;3.97;;;2.38;;
28988;SDS011;16089;59.952;10.818;2022-10-22T06:04:40;7.70;;;3.60;;
28988;SDS011;16089;59.952;10.818;2022-10-22T06:07:07;6.47;;;2.65;;
28988;SDS011;16089;59.952;10.818;2022-10-22T06:09:34;5.75;;;3.10;;
28988;SDS011;16089;59.952;10.818;2022-10-22T06:12:01;6.30;;;2.75;;
28988;SDS011;16089;59.952;10.818;2022-10-22T06:14:28;6.07;;;3.00;;
28988;SDS011;16089;59.952;10.818;2022-10-22T06:16:57;17.35;;;3.20;;
28988;SDS011;16089;59.952;10.818;2022-10-22T06:19:24;7.32;;;3.50;;
28988;SDS011;16089;59.952;10.818;2022-10-22T06:21:52;7.43;;;3.03;;
28988;SDS011;16089;59.952;10.818;2022-10-22T06:24:18;5.82;;;3.20;;
28988;SDS011;16089;59.952;10.818;2022-10-22T06:26:47;6.90;;;3.28;;
28988;SDS011;16089;59.952;10.818;2022-10-22T06:29:14;8.23;;;3.33;;
28988;SDS011;16089;59.952;10.818;2022-10-22T06:31:40;5.32;;;2.65;;
28988;SDS011;16089;59.952;10.818;2022-10-22T06:34:07;5.82;;;3.00;;
28988;SDS011;16089;59.952;10.818;2022-10-22T06:36:35;4.78;;;2.40;;
28988;SDS011;16089;59.952;10.818;2022-10-22T06:39:04;5.90;;;3.15;;
28988;SDS011;16089;59.952;10.818;2022-10-22T06:41:30;8.13;;;3.22;;
28988;SDS011;16089;59.952;10.818;2022-10-22T06:43:56;6.43;;;3.10;;
28988;SDS011;16089;59.952;10.818;2022-10-22T06:46:24;8.15;;;3.03;;
28988;SDS011;16089;59.952;10.818;2022-10-22T06:48:51;8.13;;;3.00;;
28988;SDS011;16089;59.952;10.818;2022-10-22T06:51:18;4.85;;;2.88;;
28988;SDS011;16089;59.952;10.818;2022-10-22T06:53:45;7.72;;;3.10;;
28988;SDS011;16089;59.952;10.818;2022-10-22T06:56:13;6.30;;;3.10;;
28988;SDS011;16089;59.952;10.818;2022-10-22T06:58:40;6.47;;;2.88;;
28988;SDS011;16089;59.952;10.818;2022-10-22T07:01:07;6.15;;;3.28;;
28988;SDS011;16089;59.952;10.818;2022-10-22T07:03:33;6.15;;;3.47;;
28988;SDS011;16089;59.952;10.818;2022-10-22T07:06:00;6.13;;;2.95;;
28988;SDS011;16089;59.952;10.818;2022-10-22T07:08:27;6.07;;;3.38;;
28988;SDS011;16089;59.952;10.818;2022-10-22T07:10:53;5.88;;;3.25;;
28988;SDS011;16089;59.952;10.818;2022-10-22T07:13:21;7.70;;;3.75;;
28988;SDS011;16089;59.952;10.818;2022-10-22T07:15:50;8.13;;;3.83;;
28988;SDS011;16089;59.952;10.818;2022-10-22T07:18:17;7.60;;;4.10;;
28988;SDS011;16089;59.952;10.818;2022-10-22T07:20:43;5.72;;;3.38;;
28988;SDS011;16089;59.952;10.818;2022-10-22T07:23:09;7.30;;;3.10;;
28988;SDS011;16089;59.952;10.818;2022-10-22T07:25:36;6.57;;;3.38;;
28988;SDS011;16089;59.952;10.818;2022-10-22T07:28:02;5.78;;;3.33;;
28988;SDS011;16089;59.952;10.818;2022-10-22T07:30:30;8.57;;;3.58;;
28988;SDS011;16089;59.952;10.818;2022-10-22T07:32:56;6.38;;;3.20;;
28988;SDS011;16089;59.952;10.818;2022-10-22T07:35:22;6.57;;;3.22;;
28988;SDS011;16089;59.952;10.818;2022-10-22T07:37:49;6.40;;;3.45;;
28988;SDS011;16089;59.952;10.818;2022-10-22T07:40:15;6.93;;;3.53;;
28988;SDS011;16089;59.952;10.818;2022-10-22T07:42:41;6.57;;;3.42;;
28988;SDS011;16089;59.952;10.818;2022-10-22T07:45:08;6.72;;;3.63;;
28988;SDS011;16089;59.952;10.818;2022-10-22T07:47:35;8.00;;;3.30;;
28988;SDS011;16089;59.952;10.818;2022-10-22T07:50:02;7.78;;;3.85;;
28988;SDS011;16089;59.952;10.818;2022-10-22T07:52:28;5.63;;;3.00;;
28988;SDS011;16089;59.952;10.818;2022-10-22T07:54:55;6.78;;;2.95;;
28988;SDS011;16089;59.952;10.818;2022-10-22T07:57:21;5.68;;;3.20;;
28988;SDS011;16089;59.952;10.818;2022-10-22T07:59:47;8.07;;;4.00;;
28988;SDS011;16089;59.952;10.818;2022-10-22T08:02:14;7.45;;;3.78;;
28988;SDS011;16089;59.952;10.818;2022-10-22T08:04:41;7.22;;;3.28;;
28988;SDS011;16089;59.952;10.818;2022-10-22T08:07:08;7.03;;;3.05;;
28988;SDS011;16089;59.952;10.818;2022-10-22T08:09:34;7.20;;;3.03;;
28988;SDS011;16089;59.952;10.818;2022-10-22T08:12:01;5.25;;;2.92;;
28988;SDS011;16089;59.952;10.818;2022-10-22T08:14:27;6.88;;;3.05;;
28988;SDS011;16089;59.952;10.818;2022-10-22T08:16:53;5.97;;;3.30;;
28988;SDS011;16089;59.952;10.818;2022-10-22T08:19:19;6.13;;;3.30;;
28988;SDS011;16089;59.952;10.818;2022-10-22T08:21:47;5.97;;;3.25;;
28988;SDS011;16089;59.952;10.818;2022-10-22T08:24:13;6.05;;;3.38;;
28988;SDS011;16089;59.952;10.818;2022-10-22T08:26:40;5.95;;;3.08;;
28988;SDS011;16089;59.952;10.818;2022-10-22T08:29:08;4.72;;;2.83;;
28988;SDS011;16089;59.952;10.818;2022-10-22T08:31:34;7.82;;;3.03;;
28988;SDS011;16089;59.952;10.818;2022-10-22T08:34:00;7.35;;;3.22;;
28988;SDS011;16089;59.952;10.818;2022-10-22T08:36:27;5.55;;;2.92;;
28988;SDS011;16089;59.952;10.818;2022-10-22T08:38:54;8.43;;;3.22;;
28988;SDS011;16089;59.952;10.818;2022-10-22T08:41:21;6.22;;;3.28;;
28988;SDS011;16089;59.952;10.818;2022-10-22T08:43:55;5.35;;;3.17;;
28988;SDS011;16089;59.952;10.818;2022-10-22T08:46:27;6.00;;;2.90;;
28988;SDS011;16089;59.952;10.818;2022-10-22T08:48:59;4.22;;;2.58;;
28988;SDS011;16089;59.952;10.818;2022-10-22T08:51:28;8.45;;;3.03;;
28988;SDS011;16089;59.952;10.818;2022-10-22T08:54:04;6.15;;;3.10;;
28988;SDS011;16089;59.952;10.818;2022-10-22T08:56:32;6.10;;;3.25;;
28988;SDS011;16089;59.952;10.818;2022-10-22T08:59:01;8.13;;;3.15;;
28988;SDS011;16089;59.952;10.818;2022-10-22T09:01:33;8.30;;;3.33;;
28988;SDS011;16089;59.952;10.818;2022-10-22T09:04:01;6.38;;;3.20;;
28988;SDS011;16089;59.952;10.818;2022-10-22T09:06:31;5.30;;;3.13;;
28988;SDS011;16089;59.952;10.818;2022-10-22T09:08:58;8.15;;;3.75;;
28988;SDS011;16089;59.952;10.818;2022-10-22T09:11:27;6.55;;;3.83;;
28988;SDS011;16089;59.952;10.818;2022-10-22T09:13:55;7.97;;;3.70;;
28988;SDS011;16089;59.952;10.818;2022-10-22T09:16:24;7.28;;;3.75;;
28988;SDS011;16089;59.952;10.818;2022-10-22T09:18:59;6.55;;;3.65;;
28988;SDS011;16089;59.952;10.818;2022-10-22T09:21:28;6.13;;;3.20;;
28988;SDS011;16089;59.952;10.818;2022-10-22T09:23:59;6.30;;;3.45;;
28988;SDS011;16089;59.952;10.818;2022-10-22T09:26:29;6.68;;;3.20;;
28988;SDS011;16089;59.952;10.818;2022-10-22T09:28:58;6.57;;;3.33;;
28988;SDS011;16089;59.952;10.818;2022-10-22T09:31:25;5.60;;;3.10;;
28988;SDS011;16089;59.952;10.818;2022-10-22T09:33:52;8.55;;;3.42;;
28988;SDS011;16089;59.952;10.818;2022-10-22T09:36:20;8.50;;;3.15;;
28988;SDS011;16089;59.952;10.818;2022-10-22T09:38:48;9.07;;;3.65;;
28988;SDS011;16089;59.952;10.818;2022-10-22T09:41:15;7.57;;;3.47;;
28988;SDS011;16089;59.952;10.818;2022-10-22T09:43:44;4.97;;;3.25;;
28988;SDS011;16089;59.952;10.818;2022-10-22T09:46:14;9.90;;;4.07;;
28988;SDS011;16089;59.952;10.818;2022-10-22T09:48:42;9.25;;;3.58;;
28988;SDS011;16089;59.952;10.818;2022-10-22T09:51:10;9.32;;;3.80;;
28988;SDS011;16089;59.952;10.818;2022-10-22T09:53:40;5.63;;;3.42;;
28988;SDS011;16089;59.952;10.818;2022-10-22T09:56:08;7.50;;;3.50;;
28988;SDS011;16089;59.952;10.818;2022-10-22T09:58:40;7.82;;;3.65;;
28988;SDS011;16089;59.952;10.818;2022-10-22T10:01:14;11.40;;;4.07;;
28988;SDS011;16089;59.952;10.818;2022-10-22T10:03:41;8.50;;;3.70;;
28988;SDS011;16089;59.952;10.818;2022-10-22T10:06:07;8.25;;;4.10;;
28988;SDS011;16089;59.952;10.818;2022-10-22T10:08:33;8.02;;;4.32;;
28988;SDS011;16089;59.952;10.818;2022-10-22T10:11:01;10.38;;;4.22;;
28988;SDS011;16089;59.952;10.818;2022-10-22T10:13:37;10.27;;;4.18;;
28988;SDS011;16089;59.952;10.818;2022-10-22T10:16:10;6.97;;;3.97;;
28988;SDS011;16089;59.952;10.818;2022-10-22T10:18:41;5.40;;;3.33;;
28988;SDS011;16089;59.952;10.818;2022-10-22T10:21:12;6.45;;;3.20;;
28988;SDS011;16089;59.952;10.818;2022-10-22T10:23:45;6.00;;;3.42;;
28988;SDS011;16089;59.952;10.818;2022-10-22T10:26:14;5.38;;;3.22;;
28988;SDS011;16089;59.952;10.818;2022-10-22T10:28:46;7.13;;;3.50;;
28988;SDS011;16089;59.952;10.818;2022-10-22T10:31:18;8.13;;;3.83;;
28988;SDS011;16089;59.952;10.818;2022-10-22T10:33:46;5.47;;;3.30;;
28988;SDS011;16089;59.952;10.818;2022-10-22T10:36:16;6.03;;;3.83;;
28988;SDS011;16089;59.952;10.818;2022-10-22T10:38:47;7.55;;;3.90;;
28988;SDS011;16089;59.952;10.818;2022-10-22T10:43:55;6.90;;;3.50;;
28988;SDS011;16089;59.952;10.818;2022-10-22T10:46:27;7.05;;;3.65;;
28988;SDS011;16089;59.952;10.818;2022-10-22T10:48:55;6.88;;;3.67;;
28988;SDS011;16089;59.952;10.818;2022-10-22T10:51:30;6.55;;;3.60;;
28988;SDS011;16089;59.952;10.818;2022-10-22T10:54:12;9.57;;;3.80;;
28988;SDS011;16089;59.952;10.818;2022-10-22T10:56:43;9.95;;;4.10;;
28988;SDS011;16089;59.952;10.818;2022-10-22T10:59:12;8.50;;;4.00;;
28988;SDS011;16089;59.952;10.818;2022-10-22T11:01:44;7.90;;;3.72;;
28988;SDS011;16089;59.952;10.818;2022-10-22T11:04:23;8.73;;;3.72;;
28988;SDS011;16089;59.952;10.818;2022-10-22T11:06:55;7.25;;;3.50;;
28988;SDS011;16089;59.952;10.818;2022-10-22T11:09:24;8.07;;;3.78;;
28988;SDS011;16089;59.952;10.818;2022-10-22T11:11:53;7.32;;;4.00;;
28988;SDS011;16089;59.952;10.818;2022-10-22T11:14:20;6.15;;;3.72;;
28988;SDS011;16089;59.952;10.818;2022-10-22T11:16:52;7.32;;;3.92;;
28988;SDS011;16089;59.952;10.818;2022-10-22T11:19:21;7.25;;;4.38;;
28988;SDS011;16089;59.952;10.818;2022-10-22T11:21:49;10.70;;;4.35;;
28988;SDS011;16089;59.952;10.818;2022-10-22T11:24:19;7.18;;;4.45;;
28988;SDS011;16089;59.952;10.818;2022-10-22T11:26:48;7.32;;;4.57;;
28988;SDS011;16089;59.952;10.818;2022-10-22T11:29:18;10.98;;;4.75;;
28988;SDS011;16089;59.952;10.818;2022-10-22T11:31:46;8.10;;;4.70;;
28988;SDS011;16089;59.952;10.818;2022-10-22T11:34:16;9.68;;;4.53;;
28988;SDS011;16089;59.952;10.818;2022-10-22T11:36:43;7.32;;;4.32;;
28988;SDS011;16089;59.952;10.818;2022-10-22T11:39:25;9.15;;;3.92;;
28988;SDS011;16089;59.952;10.818;2022-10-22T11:41:53;9.10;;;4.28;;
28988;SDS011;16089;59.952;10.818;2022-10-22T11:44:21;8.15;;;4.55;;
28988;SDS011;16089;59.952;10.818;2022-10-22T11:46:53;7.47;;;4.05;;
28988;SDS011;16089;59.952;10.818;2022-10-22T11:49:23;6.57;;;3.50;;
28988;SDS011;16089;59.952;10.818;2022-10-22T11:51:50;7.70;;;3.95;;
28988;SDS011;16089;59.952;10.818;2022-10-22T11:54:28;5.45;;;3.38;;
28988;SDS011;16089;59.952;10.818;2022-10-22T11:56:56;7.05;;;3.92;;
28988;SDS011;16089;59.952;10.818;2022-10-22T11:59:31;6.88;;;3.72;;
28988;SDS011;16089;59.952;10.818;2022-10-22T12:01:58;9.57;;;4.13;;
28988;SDS011;16089;59.952;10.818;2022-10-22T12:04:39;7.88;;;4.10;;
28988;SDS011;16089;59.952;10.818;2022-10-22T12:07:23;8.68;;;4.63;;
28988;SDS011;16089;59.952;10.818;2022-10-22T12:09:55;13.20;;;5.13;;
28988;SDS011;16089;59.952;10.818;2022-10-22T12:12:22;11.65;;;6.18;;
28988;SDS011;16089;59.952;10.818;2022-10-22T12:14:52;11.27;;;5.50;;
28988;SDS011;16089;59.952;10.818;2022-10-22T12:17:19;10.30;;;4.45;;
28988;SDS011;16089;59.952;10.818;2022-10-22T12:19:48;7.63;;;4.65;;
28988;SDS011;16089;59.952;10.818;2022-10-22T12:22:16;6.35;;;4.20;;
28988;SDS011;16089;59.952;10.818;2022-10-22T12:24:45;6.90;;;3.95;;
28988;SDS011;16089;59.952;10.818;2022-10-22T12:27:17;9.38;;;5.03;;
28988;SDS011;16089;59.952;10.818;2022-10-22T12:29:44;10.50;;;5.70;;
28988;SDS011;16089;59.952;10.818;2022-10-22T12:32:11;9.68;;;5.68;;
28988;SDS011;16089;59.952;10.818;2022-10-22T12:34:43;10.50;;;5.45;;
28988;SDS011;16089;59.952;10.818;2022-10-22T12:37:13;11.32;;;5.75;;
28988;SDS011;16089;59.952;10.818;2022-10-22T12:39:40;13.75;;;6.88;;
28988;SDS011;16089;59.952;10.818;2022-10-22T12:42:06;11.32;;;6.75;;
28988;SDS011;16089;59.952;10.818;2022-10-22T12:44:33;12.57;;;6.68;;
28988;SDS011;16089;59.952;10.818;2022-10-22T12:46:59;10.43;;;6.35;;
28988;SDS011;16089;59.952;10.818;2022-10-22T12:49:27;13.80;;;6.57;;
28988;SDS011;16089;59.952;10.818;2022-10-22T12:51:59;14.73;;;6.20;;
28988;SDS011;16089;59.952;10.818;2022-10-22T12:54:27;13.15;;;6.15;;
28988;SDS011;16089;59.952;10.818;2022-10-22T12:56:55;9.43;;;5.53;;
28988;SDS011;16089;59.952;10.818;2022-10-22T12:59:23;14.90;;;6.22;;
28988;SDS011;16089;59.952;10.818;2022-10-22T13:01:50;9.45;;;6.63;;
28988;SDS011;16089;59.952;10.818;2022-10-22T13:04:21;12.20;;;6.20;;
28988;SDS011;16089;59.952;10.818;2022-10-22T13:06:48;14.90;;;7.00;;
28988;SDS011;16089;59.952;10.818;2022-10-22T13:09:16;12.77;;;7.38;;
28988;SDS011;16089;59.952;10.818;2022-10-22T13:11:49;13.43;;;7.28;;
28988;SDS011;16089;59.952;10.818;2022-10-22T13:14:18;12.55;;;6.90;;
28988;SDS011;16089;59.952;10.818;2022-10-22T13:19:36;14.02;;;6.45;;
28988;SDS011;16089;59.952;10.818;2022-10-22T13:22:03;14.93;;;6.60;;
28988;SDS011;16089;59.952;10.818;2022-10-22T13:24:29;12.55;;;6.25;;
28988;SDS011;16089;59.952;10.818;2022-10-22T13:26:57;12.25;;;7.05;;
28988;SDS011;16089;59.952;10.818;2022-10-22T13:29:23;12.80;;;6.55;;
28988;SDS011;16089;59.952;10.818;2022-10-22T13:31:50;12.63;;;6.85;;
28988;SDS011;16089;59.952;10.818;2022-10-22T13:34:18;11.52;;;6.53;;
28988;SDS011;16089;59.952;10.818;2022-10-22T13:36:44;11.00;;;7.05;;
28988;SDS011;16089;59.952;10.818;2022-10-22T13:39:11;15.50;;;7.30;;
28988;SDS011;16089;59.952;10.818;2022-10-22T13:41:38;12.43;;;6.93;;
28988;SDS011;16089;59.952;10.818;2022-10-22T13:44:06;13.07;;;7.45;;
28988;SDS011;16089;59.952;10.818;2022-10-22T13:46:32;11.85;;;7.25;;
28988;SDS011;16089;59.952;10.818;2022-10-22T13:49:04;13.82;;;7.07;;
28988;SDS011;16089;59.952;10.818;2022-10-22T13:51:32;12.25;;;7.45;;
28988;SDS011;16089;59.952;10.818;2022-10-22T13:53:59;13.98;;;6.88;;
28988;SDS011;16089;59.952;10.818;2022-10-22T13:56:25;15.05;;;7.50;;
28988;SDS011;16089;59.952;10.818;2022-10-22T13:58:51;17.35;;;8.43;;
28988;SDS011;16089;59.952;10.818;2022-10-22T14:01:20;14.05;;;7.28;;
28988;SDS011;16089;59.952;10.818;2022-10-22T14:03:47;13.82;;;7.28;;
28988;SDS011;16089;59.952;10.818;2022-10-22T14:06:14;12.32;;;7.13;;
28988;SDS011;16089;59.952;10.818;2022-10-22T14:08:42;13.93;;;7.05;;
28988;SDS011;16089;59.952;10.818;2022-10-22T14:11:09;14.10;;;7.70;;
28988;SDS011;16089;59.952;10.818;2022-10-22T14:13:35;12.98;;;7.50;;
28988;SDS011;16089;59.952;10.818;2022-10-22T14:16:02;15.57;;;7.57;;
28988;SDS011;16089;59.952;10.818;2022-10-22T14:18:30;16.77;;;7.43;;
28988;SDS011;16089;59.952;10.818;2022-10-22T14:20:57;17.55;;;8.70;;
28988;SDS011;16089;59.952;10.818;2022-10-22T14:23:26;18.45;;;9.65;;
28988;SDS011;16089;59.952;10.818;2022-10-22T14:25:53;13.20;;;7.57;;
28988;SDS011;16089;59.952;10.818;2022-10-22T14:28:19;14.48;;;8.23;;
28988;SDS011;16089;59.952;10.818;2022-10-22T14:30:45;14.95;;;8.25;;
28988;SDS011;16089;59.952;10.818;2022-10-22T14:33:12;14.25;;;7.82;;
28988;SDS011;16089;59.952;10.818;2022-10-22T14:35:41;16.95;;;7.93;;
28988;SDS011;16089;59.952;10.818;2022-10-22T14:38:07;20.33;;;10.05;;
28988;SDS011;16089;59.952;10.818;2022-10-22T14:40:34;16.98;;;9.02;;
28988;SDS011;16089;59.952;10.818;2022-10-22T14:43:03;16.58;;;8.85;;
28988;SDS011;16089;59.952;10.818;2022-10-22T14:45:29;19.98;;;8.80;;